Time;durP1;ratioP1;P1;durP2;ratioP2;P2;SDS_P1;SDS_P2;PMS_P1;PMS_P2;Temp;Humidity;BMP_temperature;BMP_pressure;BME280_temperature;BME280_humidity;BME280_pressure;Samples;Min_cycle;Max_cycle;Signal;HPM_P1;HPM_P2
2022/10/25 00:00:47;;;;;;;8.70;8.30;;;13.70;53.50;;;;;;5060939;28;20429;-60
2022/10/25 00:03:13;;;;;;;8.40;8.10;;;13.80;53.80;;;;;;5062774;28;20182;-59
2022/10/25 00:05:40;;;;;;;8.33;8.00;;;13.60;53.80;;;;;;5062052;28;20368;-60
2022/10/25 00:08:06;;;;;;;8.23;7.83;;;13.60;54.20;;;;;;5061048;28;20260;-60
2022/10/25 00:10:32;;;;;;;8.40;8.10;;;13.60;53.90;;;;;;5062048;28;20563;-60
2022/10/25 00:12:58;;;;;;;8.77;8.37;;;13.40;54.40;;;;;;5063018;28;20471;-59
2022/10/25 00:15:24;;;;;;;8.57;8.03;;;13.50;54.40;;;;;;5061948;28;20465;-59
2022/10/25 00:17:50;;;;;;;8.77;8.17;;;13.40;54.40;;;;;;5060763;28;20636;-60
2022/10/25 00:20:16;;;;;;;8.00;7.70;;;13.40;54.40;;;;;;5061083;28;20412;-60
2022/10/25 00:22:41;;;;;;;8.30;7.90;;;13.40;54.60;;;;;;5061225;28;20709;-60
2022/10/25 00:25:08;;;;;;;7.40;7.10;;;13.50;54.50;;;;;;5062074;28;20425;-60
2022/10/25 00:27:34;;;;;;;7.80;7.50;;;13.50;54.50;;;;;;5060395;28;20273;-60
2022/10/25 00:30:00;;;;;;;9.10;8.60;;;13.60;54.50;;;;;;5063801;28;20811;-60
2022/10/25 00:32:26;;;;;;;8.57;8.30;;;13.70;53.60;;;;;;5064215;28;20456;-60
2022/10/25 00:34:52;;;;;;;8.13;7.83;;;13.80;53.50;;;;;;5064728;28;20829;-60
2022/10/25 00:37:18;;;;;;;9.47;8.97;;;13.70;52.70;;;;;;5064449;28;20405;-60
2022/10/25 00:39:45;;;;;;;8.43;7.93;;;13.60;52.60;;;;;;5065368;28;20171;-60
2022/10/25 00:42:18;;;;;;;8.80;8.40;;;13.60;53.20;;;;;;5066781;28;20398;-61
2022/10/25 00:44:49;;;;;;;9.10;8.60;;;13.50;53.00;;;;;;5064540;28;20420;-60
2022/10/25 00:47:20;;;;;;;8.97;8.60;;;13.50;53.40;;;;;;5064165;28;20429;-59
2022/10/25 00:50:00;;;;;;;8.60;8.23;;;13.50;53.50;;;;;;5064170;28;20490;-59
2022/10/25 00:52:30;;;;;;;8.70;8.20;;;13.50;53.00;;;;;;5064918;28;20406;-60
2022/10/25 00:54:57;;;;;;;9.27;8.67;;;13.50;54.50;;;;;;5063225;28;20401;-51
2022/10/25 00:57:36;;;;;;;8.43;8.10;;;13.50;53.70;;;;;;5064628;28;20448;-53
2022/10/25 01:00:05;;;;;;;8.40;8.00;;;13.40;54.40;;;;;;5064120;28;20921;-53
2022/10/25 01:02:31;;;;;;;8.93;8.40;;;13.40;54.00;;;;;;5063079;28;20422;-54
2022/10/25 01:04:57;;;;;;;7.87;7.57;;;13.40;53.80;;;;;;5065619;28;20406;-55
2022/10/25 01:07:23;;;;;;;8.63;8.13;;;13.40;54.40;;;;;;5064606;28;20178;-53
2022/10/25 01:09:50;;;;;;;8.33;8.03;;;13.40;53.50;;;;;;5064424;28;20790;-51
2022/10/25 01:12:16;;;;;;;8.33;7.93;;;13.40;53.70;;;;;;5064002;28;20258;-53
2022/10/25 01:14:47;;;;;;;8.17;7.70;;;13.40;53.30;;;;;;5065196;28;20501;-53
2022/10/25 01:17:34;;;;;;;8.60;8.20;;;13.50;54.50;;;;;;5064667;28;20418;-53
2022/10/25 01:20:15;;;;;;;8.77;8.43;;;13.50;53.90;;;;;;5062802;28;20513;-52
2022/10/25 01:23:28;;;;;;;9.10;8.60;;;13.60;53.20;;;;;;5063955;28;20405;-52
2022/10/25 01:26:31;;;;;;;8.90;8.60;;;13.60;53.20;;;;;;5026037;28;20771;-52
2022/10/25 01:28:57;;;;;;;8.50;8.13;;;13.70;52.80;;;;;;5061397;28;20421;-54
2022/10/25 01:31:40;;;;;;;8.70;8.40;;;13.80;52.80;;;;;;5065447;28;20433;-54
2022/10/25 01:34:34;;;;;;;9.00;8.67;;;13.90;52.30;;;;;;5063486;28;20274;-53
2022/10/25 01:37:03;;;;;;;9.30;8.90;;;13.90;52.20;;;;;;5064615;28;20520;-54
2022/10/25 01:39:38;;;;;;;8.90;8.50;;;14.10;52.60;;;;;;5062430;28;20846;-53
2022/10/25 01:42:15;;;;;;;10.00;9.00;;;14.20;51.70;;;;;;5064918;28;20413;-60
2022/10/25 01:44:59;;;;;;;9.63;9.33;;;14.20;50.60;;;;;;5064103;28;20493;-60
2022/10/25 01:47:31;;;;;;;9.93;9.53;;;14.10;51.00;;;;;;5064280;28;20424;-54
2022/10/25 01:50:04;;;;;;;9.70;9.30;;;14.20;51.20;;;;;;5061786;28;20479;-55
2022/10/25 01:52:30;;;;;;;9.70;9.30;;;14.40;50.40;;;;;;5064664;28;20508;-54
2022/10/25 01:54:55;;;;;;;9.77;9.37;;;14.40;49.80;;;;;;5063736;28;20505;-53
2022/10/25 01:57:51;;;;;;;10.57;9.87;;;14.20;49.80;;;;;;5064837;28;20537;-53
2022/10/25 02:00:22;;;;;;;9.27;8.97;;;14.20;50.90;;;;;;5062723;28;20656;-54
2022/10/25 02:03:03;;;;;;;8.87;8.47;;;14.10;51.30;;;;;;5063170;28;20512;-53
2022/10/25 02:05:58;;;;;;;9.87;9.47;;;14.20;50.80;;;;;;5065334;28;20941;-54
2022/10/25 02:08:40;;;;;;;9.40;9.00;;;14.40;50.60;;;;;;5062023;28;20417;-54
2022/10/25 02:11:11;;;;;;;9.17;8.87;;;14.40;49.70;;;;;;5061724;28;20570;-54
2022/10/25 02:14:06;;;;;;;9.87;9.57;;;14.40;48.90;;;;;;5064162;28;20425;-55
2022/10/25 02:16:56;;;;;;;11.07;10.47;;;14.40;49.40;;;;;;5062802;28;20457;-55
2022/10/25 02:19:53;;;;;;;10.80;10.20;;;14.30;48.90;;;;;;5064984;28;20708;-53
2022/10/25 02:22:22;;;;;;;10.93;10.30;;;14.20;49.70;;;;;;5064590;28;20402;-53
2022/10/25 02:24:49;;;;;;;10.27;9.77;;;14.30;50.10;;;;;;5063685;28;20413;-54
2022/10/25 02:27:17;;;;;;;10.50;10.20;;;14.30;49.50;;;;;;5062646;28;20765;-52
2022/10/25 02:29:44;;;;;;;10.70;10.20;;;14.40;49.40;;;;;;5061942;28;20437;-52
2022/10/25 02:32:10;;;;;;;10.07;9.77;;;14.50;49.00;;;;;;5063081;28;20410;-53
2022/10/25 02:34:35;;;;;;;10.80;10.10;;;14.50;48.00;;;;;;5063387;28;20452;-54
2022/10/25 02:37:02;;;;;;;10.07;9.67;;;14.40;48.70;;;;;;5063962;28;20227;-54
2022/10/25 02:39:29;;;;;;;9.87;9.50;;;14.30;49.20;;;;;;5063055;28;20421;-55
2022/10/25 02:41:55;;;;;;;10.13;9.57;;;14.40;49.70;;;;;;5064412;28;20523;-55
2022/10/25 02:44:20;;;;;;;11.00;10.30;;;14.30;48.50;;;;;;5063155;28;20428;-54
2022/10/25 02:46:46;;;;;;;10.00;9.63;;;14.20;48.90;;;;;;5062311;28;20218;-53
2022/10/25 02:49:12;;;;;;;10.00;9.60;;;14.00;49.60;;;;;;5064197;28;20211;-53
2022/10/25 02:51:37;;;;;;;10.70;10.30;;;14.00;50.00;;;;;;5064376;28;20270;-51
2022/10/25 02:54:03;;;;;;;9.60;9.30;;;13.90;50.50;;;;;;5062738;28;20198;-52
2022/10/25 02:56:29;;;;;;;9.83;9.43;;;13.80;51.30;;;;;;5063517;28;20211;-53
2022/10/25 02:58:56;;;;;;;9.53;9.13;;;13.90;51.50;;;;;;5063722;28;20185;-53
2022/10/25 03:01:23;;;;;;;10.40;9.90;;;13.90;51.10;;;;;;5062506;28;20179;-54
2022/10/25 03:03:49;;;;;;;9.70;9.40;;;13.80;51.10;;;;;;5062642;28;20412;-52
2022/10/25 03:06:16;;;;;;;9.80;9.40;;;13.90;51.50;;;;;;5064999;28;20426;-51
2022/10/25 03:08:42;;;;;;;10.33;9.70;;;14.10;51.00;;;;;;5063172;28;20228;-54
2022/10/25 03:11:09;;;;;;;10.00;9.50;;;14.00;49.90;;;;;;5065603;28;20417;-52
2022/10/25 03:13:35;;;;;;;10.80;10.00;;;14.00;50.70;;;;;;5066069;28;20793;-53
2022/10/25 03:16:01;;;;;;;9.90;9.50;;;14.00;49.50;;;;;;5067093;28;20468;-53
2022/10/25 03:18:27;;;;;;;10.47;9.90;;;14.00;50.00;;;;;;5065814;28;20175;-54
2022/10/25 03:20:57;;;;;;;9.43;9.03;;;14.10;50.30;;;;;;5065164;28;20910;-55
2022/10/25 03:23:23;;;;;;;10.40;9.70;;;14.20;49.90;;;;;;5067643;28;20329;-55
2022/10/25 03:25:58;;;;;;;11.13;10.10;;;14.30;49.70;;;;;;5066692;28;20969;-54
2022/10/25 03:28:26;;;;;;;10.90;10.30;;;14.20;49.40;;;;;;5067941;28;20417;-55
2022/10/25 03:30:52;;;;;;;11.20;10.60;;;14.30;49.70;;;;;;5066757;28;20871;-54
2022/10/25 03:33:18;;;;;;;10.13;9.63;;;14.20;48.50;;;;;;5066238;28;20506;-60
2022/10/25 03:35:44;;;;;;;11.70;10.77;;;14.30;48.80;;;;;;5067220;28;20813;-60
2022/10/25 03:38:10;;;;;;;11.20;10.60;;;14.20;48.40;;;;;;5067017;28;20623;-60
2022/10/25 03:40:36;;;;;;;10.60;9.87;;;14.30;49.10;;;;;;5066171;28;20250;-60
2022/10/25 03:43:02;;;;;;;10.33;10.03;;;14.20;49.00;;;;;;5070326;28;20201;-60
2022/10/25 03:45:27;;;;;;;9.80;9.50;;;14.30;49.90;;;;;;5069948;28;20824;-60
2022/10/25 03:47:53;;;;;;;10.43;10.03;;;14.40;49.50;;;;;;5068655;28;20187;-60
2022/10/25 03:50:19;;;;;;;10.37;9.77;;;14.30;48.50;;;;;;5069138;28;20571;-60
2022/10/25 03:52:44;;;;;;;10.80;9.90;;;14.20;49.50;;;;;;5069794;28;20179;-60
2022/10/25 03:55:10;;;;;;;10.93;10.43;;;14.10;49.40;;;;;;5069631;28;20203;-60
2022/10/25 03:57:36;;;;;;;10.97;10.57;;;14.00;49.90;;;;;;5069654;28;20182;-60
2022/10/25 04:00:02;;;;;;;10.50;10.10;;;13.90;50.50;;;;;;5069859;28;20176;-60
2022/10/25 04:02:28;;;;;;;10.47;10.07;;;13.90;50.70;;;;;;5069650;28;20667;-60
2022/10/25 04:04:54;;;;;;;10.03;9.73;;;13.90;50.90;;;;;;5072713;28;20456;-60
2022/10/25 04:07:19;;;;;;;11.43;10.83;;;13.80;50.80;;;;;;5075580;28;20176;-60
2022/10/25 04:09:45;;;;;;;10.40;10.00;;;13.70;51.10;;;;;;5073569;28;20643;-60
2022/10/25 04:12:11;;;;;;;10.40;10.00;;;13.60;51.40;;;;;;5073773;28;20182;-54
2022/10/25 04:14:37;;;;;;;10.80;10.20;;;13.70;51.90;;;;;;5072625;28;20179;-60
2022/10/25 04:17:03;;;;;;;11.20;10.70;;;13.60;52.40;;;;;;5074026;28;20455;-60
2022/10/25 04:19:28;;;;;;;11.20;10.53;;;13.60;51.90;;;;;;5073245;28;20206;-60
2022/10/25 04:21:54;;;;;;;10.57;10.10;;;13.60;52.70;;;;;;5071733;28;20182;-60
2022/10/25 04:24:21;;;;;;;10.13;9.40;;;13.70;52.10;;;;;;5073277;28;20171;-60
2022/10/25 04:26:47;;;;;;;10.60;10.10;;;13.70;52.10;;;;;;5072892;28;20211;-60
2022/10/25 04:29:14;;;;;;;11.33;10.47;;;13.70;52.10;;;;;;5072961;28;20474;-60
2022/10/25 04:31:40;;;;;;;10.07;9.57;;;13.80;52.60;;;;;;5071426;28;20425;-60
2022/10/25 04:34:06;;;;;;;10.40;9.90;;;13.90;52.30;;;;;;5074126;28;20427;-60
2022/10/25 04:36:31;;;;;;;10.77;10.17;;;14.10;51.40;;;;;;5072555;28;20211;-54
2022/10/25 04:38:57;;;;;;;11.33;10.80;;;14.10;51.00;;;;;;5073789;28;20175;-54
2022/10/25 04:41:23;;;;;;;10.63;10.10;;;14.10;50.10;;;;;;5054178;28;20211;-54
2022/10/25 04:43:50;;;;;;;10.40;9.90;;;14.10;50.40;;;;;;5053815;28;20322;-55
2022/10/25 04:46:16;;;;;;;10.17;9.30;;;14.10;50.60;;;;;;5052474;28;20233;-54
2022/10/25 04:48:42;;;;;;;9.27;8.97;;;14.20;50.70;;;;;;5053682;28;20418;-54
2022/10/25 04:51:09;;;;;;;9.30;9.00;;;14.30;49.90;;;;;;5052777;28;20188;-57
2022/10/25 04:53:35;;;;;;;10.07;9.47;;;14.40;49.70;;;;;;5053750;28;20426;-50
2022/10/25 04:56:04;;;;;;;8.90;8.60;;;14.50;49.00;;;;;;5053620;28;20461;-50
2022/10/25 04:58:30;;;;;;;10.70;10.10;;;14.50;48.80;;;;;;5053702;28;20183;-53
2022/10/25 05:01:08;;;;;;;10.30;9.77;;;14.60;48.40;;;;;;5053066;28;20422;-60
2022/10/25 05:03:34;;;;;;;9.73;9.33;;;14.50;47.60;;;;;;5053528;28;20183;-54
2022/10/25 05:06:11;;;;;;;10.67;10.27;;;14.40;48.60;;;;;;5052379;28;20430;-54
2022/10/25 05:08:43;;;;;;;11.53;11.03;;;14.40;49.40;;;;;;5053084;28;20418;-51
2022/10/25 05:11:10;;;;;;;10.93;10.33;;;14.40;48.60;;;;;;5053018;28;20449;-54
2022/10/25 05:13:38;;;;;;;10.60;10.10;;;14.50;48.00;;;;;;5052805;28;20422;-54
2022/10/25 05:16:04;;;;;;;11.30;10.77;;;14.60;47.80;;;;;;5051818;28;20470;-53
2022/10/25 05:18:30;;;;;;;11.27;10.77;;;14.60;47.30;;;;;;5050246;28;20442;-54
2022/10/25 05:20:58;;;;;;;10.47;9.97;;;14.60;47.00;;;;;;5050785;28;20476;-53
2022/10/25 05:23:25;;;;;;;10.33;9.83;;;14.70;46.50;;;;;;5052008;28;20921;-55
2022/10/25 05:26:06;;;;;;;10.50;10.10;;;14.70;46.20;;;;;;5053609;28;20407;-51
2022/10/25 05:28:33;;;;;;;11.17;10.60;;;14.70;46.30;;;;;;5051788;28;20422;-54
2022/10/25 05:31:04;;;;;;;10.57;10.17;;;14.60;46.30;;;;;;5050364;28;20446;-53
2022/10/25 05:33:30;;;;;;;12.07;11.37;;;14.40;47.20;;;;;;5045727;28;20814;-51
2022/10/25 05:35:57;;;;;;;10.90;10.30;;;14.30;48.00;;;;;;5049791;28;20469;-54
2022/10/25 05:38:22;;;;;;;11.27;10.87;;;14.30;48.00;;;;;;5051188;28;20271;-54
2022/10/25 05:40:53;;;;;;;10.53;10.13;;;14.40;48.50;;;;;;5049590;28;20509;-53
2022/10/25 05:43:19;;;;;;;11.10;10.50;;;14.40;48.20;;;;;;5052120;28;20180;-53
2022/10/25 05:45:44;;;;;;;10.93;10.53;;;14.50;47.80;;;;;;5048001;28;20978;-54
2022/10/25 05:48:10;;;;;;;11.20;10.70;;;14.60;47.40;;;;;;5049819;28;20183;-52
2022/10/25 05:50:36;;;;;;;12.67;11.93;;;14.60;46.90;;;;;;5050001;28;20529;-53
2022/10/25 05:53:01;;;;;;;11.53;11.03;;;14.50;46.70;;;;;;5051398;28;20226;-53
2022/10/25 05:55:27;;;;;;;11.00;10.60;;;14.40;47.70;;;;;;5049713;28;20232;-52
2022/10/25 05:57:53;;;;;;;11.40;11.00;;;14.30;47.20;;;;;;5048789;28;20191;-54
2022/10/25 06:00:18;;;;;;;11.17;10.53;;;14.10;47.80;;;;;;5044909;28;20276;-53
2022/10/25 06:02:44;;;;;;;11.93;11.33;;;14.00;48.60;;;;;;5045952;28;20263;-54
2022/10/25 06:05:09;;;;;;;11.23;10.50;;;14.00;48.90;;;;;;5045023;28;20703;-53
2022/10/25 06:07:35;;;;;;;11.63;11.00;;;13.80;49.00;;;;;;5047165;28;20195;-54
2022/10/25 06:10:01;;;;;;;10.60;10.10;;;13.80;49.50;;;;;;5044894;28;20172;-52
2022/10/25 06:12:26;;;;;;;11.20;10.70;;;13.80;49.50;;;;;;5044633;28;20176;-53
2022/10/25 06:14:52;;;;;;;10.70;10.20;;;13.80;50.20;;;;;;5047049;28;20172;-53
2022/10/25 06:17:17;;;;;;;11.23;10.73;;;13.90;49.10;;;;;;5044789;28;20618;-52
2022/10/25 06:19:43;;;;;;;10.93;10.40;;;13.80;49.30;;;;;;5048125;28;20172;-58
2022/10/25 06:22:09;;;;;;;11.17;10.30;;;13.70;50.20;;;;;;5046928;28;20186;-59
2022/10/25 06:24:34;;;;;;;10.87;10.30;;;13.90;50.50;;;;;;5047667;28;20264;-59
2022/10/25 06:27:00;;;;;;;11.30;10.70;;;14.00;49.30;;;;;;5061429;28;20632;-59
2022/10/25 06:29:25;;;;;;;9.90;9.40;;;14.00;49.30;;;;;;5068941;28;20195;-60
2022/10/25 06:31:51;;;;;;;9.83;9.43;;;14.10;49.60;;;;;;5068512;28;20547;-59
2022/10/25 06:34:17;;;;;;;10.20;9.63;;;14.20;49.30;;;;;;5067611;28;20179;-59
2022/10/25 06:36:42;;;;;;;9.70;9.30;;;14.30;49.00;;;;;;5047292;28;20224;-59
2022/10/25 06:39:08;;;;;;;10.07;9.47;;;14.40;48.50;;;;;;5047153;28;20218;-59
2022/10/25 06:41:37;;;;;;;9.50;8.90;;;14.50;48.10;;;;;;5045504;28;20176;-60
2022/10/25 06:44:03;;;;;;;10.10;9.50;;;14.60;47.90;;;;;;5047824;28;20176;-60
2022/10/25 06:46:32;;;;;;;9.97;9.27;;;14.50;46.80;;;;;;5045939;28;20970;-60
2022/10/25 06:48:59;;;;;;;10.30;9.80;;;14.60;47.40;;;;;;5046639;28;20445;-60
2022/10/25 06:51:26;;;;;;;10.27;9.87;;;14.70;47.20;;;;;;5048696;28;20429;-60
2022/10/25 06:53:56;;;;;;;9.67;9.37;;;14.70;47.00;;;;;;5047466;28;20777;-51
2022/10/25 06:56:22;;;;;;;10.40;9.90;;;14.70;46.60;;;;;;5045773;28;20464;-54
2022/10/25 06:58:48;;;;;;;10.63;10.23;;;14.70;46.80;;;;;;5045969;28;20411;-52
2022/10/25 07:01:15;;;;;;;10.90;10.20;;;14.70;46.90;;;;;;5045704;28;20464;-58
2022/10/25 07:03:42;;;;;;;9.90;9.50;;;14.70;47.30;;;;;;5047371;28;20624;-50
2022/10/25 07:06:36;;;;;;;10.20;9.70;;;14.80;47.40;;;;;;5045802;28;20418;-53
2022/10/25 07:09:04;;;;;;;9.80;9.50;;;14.90;47.30;;;;;;5045291;28;20515;-57
2022/10/25 07:11:31;;;;;;;10.10;9.60;;;14.90;47.10;;;;;;5046537;28;20422;-57
2022/10/25 07:13:58;;;;;;;10.67;10.23;;;14.90;47.40;;;;;;5042417;28;20441;-57
2022/10/25 07:16:24;;;;;;;10.63;10.20;;;14.90;47.20;;;;;;5043328;28;20869;-57
2022/10/25 07:18:51;;;;;;;10.90;10.40;;;15.00;47.50;;;;;;5040250;28;20472;-57
2022/10/25 07:21:20;;;;;;;9.80;9.50;;;15.00;47.30;;;;;;5039631;28;20419;-56
2022/10/25 07:23:47;;;;;;;9.63;9.33;;;15.00;47.30;;;;;;5043968;28;20427;-57
2022/10/25 07:26:21;;;;;;;11.27;10.80;;;15.00;47.10;;;;;;5041287;28;20441;-56
2022/10/25 07:28:47;;;;;;;10.00;9.50;;;15.00;47.20;;;;;;5041270;28;20414;-55
2022/10/25 07:31:16;;;;;;;9.80;9.50;;;14.90;45.90;;;;;;5041390;28;20434;-53
2022/10/25 07:33:42;;;;;;;10.70;10.20;;;14.80;46.10;;;;;;5043639;28;20418;-54
2022/10/25 07:36:08;;;;;;;10.30;9.53;;;14.60;46.60;;;;;;5044008;28;21042;-54
2022/10/25 07:38:33;;;;;;;9.90;9.50;;;14.50;47.30;;;;;;5050743;28;20418;-54
2022/10/25 07:40:59;;;;;;;9.67;9.27;;;14.50;48.20;;;;;;5052040;28;20538;-57
2022/10/25 07:43:25;;;;;;;10.83;10.13;;;14.60;47.60;;;;;;5052263;28;20722;-53
2022/10/25 07:45:51;;;;;;;10.67;10.17;;;14.60;47.60;;;;;;5052216;28;20186;-54
2022/10/25 07:48:17;;;;;;;11.17;10.37;;;14.60;47.80;;;;;;5051480;28;20418;-55
2022/10/25 07:50:43;;;;;;;11.57;11.07;;;14.50;47.30;;;;;;5054592;28;20934;-56
2022/10/25 07:53:08;;;;;;;10.60;10.10;;;14.40;47.60;;;;;;5055453;28;20193;-54
2022/10/25 07:55:34;;;;;;;11.10;10.50;;;14.50;48.30;;;;;;5055917;28;20199;-54
2022/10/25 07:58:01;;;;;;;12.70;11.90;;;14.60;48.30;;;;;;5052992;28;20198;-54
2022/10/25 08:00:26;;;;;;;10.90;10.47;;;14.60;47.50;;;;;;5055203;28;20730;-54
2022/10/25 08:02:52;;;;;;;10.67;10.17;;;14.70;48.40;;;;;;5055553;28;20493;-56
2022/10/25 08:05:18;;;;;;;11.63;11.03;;;14.70;47.10;;;;;;5052310;28;20602;-55
2022/10/25 08:07:43;;;;;;;10.70;10.10;;;14.60;46.90;;;;;;5051774;28;20188;-55
2022/10/25 08:10:09;;;;;;;10.77;10.07;;;14.70;47.50;;;;;;5052475;28;20233;-56
2022/10/25 08:12:35;;;;;;;10.40;9.80;;;14.70;47.60;;;;;;5054462;28;20262;-55
2022/10/25 08:15:00;;;;;;;9.10;8.80;;;14.90;48.10;;;;;;5055105;28;20176;-55
2022/10/25 08:17:26;;;;;;;10.13;9.70;;;14.90;47.30;;;;;;5056548;28;20549;-56
2022/10/25 08:19:52;;;;;;;10.50;9.90;;;15.00;46.40;;;;;;5051496;28;20176;-54
2022/10/25 08:22:17;;;;;;;10.00;9.60;;;14.90;45.90;;;;;;5056770;28;20176;-56
2022/10/25 08:24:43;;;;;;;9.23;8.93;;;14.80;45.80;;;;;;5055234;28;20204;-57
2022/10/25 08:27:08;;;;;;;9.87;9.17;;;14.90;46.20;;;;;;5056561;28;20227;-56
2022/10/25 08:29:34;;;;;;;10.43;9.93;;;14.90;45.90;;;;;;5053344;28;20192;-56
2022/10/25 08:32:00;;;;;;;10.57;9.97;;;14.90;45.90;;;;;;5053904;28;20176;-56
2022/10/25 08:34:25;;;;;;;11.33;10.70;;;14.90;46.00;;;;;;5054612;28;20207;-55
2022/10/25 08:36:51;;;;;;;10.37;9.80;;;14.90;45.90;;;;;;5056609;28;20203;-56
2022/10/25 08:39:17;;;;;;;11.60;10.60;;;15.00;46.00;;;;;;5056696;28;20625;-57
2022/10/25 08:42:00;;;;;;;9.60;9.30;;;14.90;45.10;;;;;;5056470;28;20640;-56
2022/10/25 08:44:49;;;;;;;10.47;9.90;;;15.00;45.70;;;;;;5055480;28;20226;-56
2022/10/25 08:47:30;;;;;;;10.37;10.00;;;15.00;45.90;;;;;;5056790;28;20505;-57
2022/10/25 08:50:09;;;;;;;9.50;8.90;;;15.00;46.00;;;;;;5052790;28;20508;-55
2022/10/25 08:52:44;;;;;;;10.10;9.60;;;15.10;46.10;;;;;;5053211;28;20475;-54
2022/10/25 08:55:32;;;;;;;10.17;9.77;;;15.20;46.00;;;;;;5052299;28;20761;-56
2022/10/25 08:57:59;;;;;;;9.60;9.00;;;15.30;45.30;;;;;;5053333;28;20500;-56
2022/10/25 09:00:38;;;;;;;10.80;10.17;;;15.40;45.10;;;;;;5052371;28;20468;-56
2022/10/25 09:03:09;;;;;;;9.27;8.97;;;15.50;44.50;;;;;;5052330;28;20444;-55
2022/10/25 09:05:52;;;;;;;9.77;9.37;;;15.70;43.20;;;;;;5053097;28;20494;-57
2022/10/25 09:08:23;;;;;;;10.77;10.17;;;15.90;42.70;;;;;;5053152;28;20461;-57
2022/10/25 09:10:56;;;;;;;9.33;8.73;;;15.90;42.20;;;;;;5052713;28;20791;-57
2022/10/25 09:13:25;;;;;;;9.00;8.53;;;16.00;42.10;;;;;;5052932;28;20446;-57
2022/10/25 09:16:00;;;;;;;8.87;8.47;;;16.10;42.10;;;;;;5053758;28;20462;-56
2022/10/25 09:18:48;;;;;;;9.20;8.80;;;16.10;41.90;;;;;;5042522;28;20557;-57
2022/10/25 09:21:29;;;;;;;9.33;9.03;;;16.20;41.30;;;;;;5034138;28;20422;-57
2022/10/25 09:24:09;;;;;;;9.77;9.27;;;16.20;41.50;;;;;;5051318;28;20417;-57
2022/10/25 09:26:38;;;;;;;9.53;9.00;;;16.20;41.10;;;;;;5052879;28;20782;-57
2022/10/25 09:29:18;;;;;;;9.63;9.20;;;16.20;41.40;;;;;;5051932;28;20418;-56
2022/10/25 09:31:49;;;;;;;9.50;9.10;;;16.30;41.40;;;;;;5051813;28;20903;-56
2022/10/25 09:34:19;;;;;;;9.70;9.40;;;16.30;40.90;;;;;;5051125;28;20472;-57
2022/10/25 09:36:47;;;;;;;10.20;9.80;;;16.40;41.50;;;;;;5052029;28;20462;-57
2022/10/25 09:39:21;;;;;;;10.10;9.40;;;16.40;41.20;;;;;;5051377;28;20442;-56
2022/10/25 09:41:51;;;;;;;9.53;9.20;;;16.40;40.30;;;;;;5050750;28;20418;-56
2022/10/25 09:44:40;;;;;;;10.07;9.60;;;16.40;40.20;;;;;;5050238;28;20402;-55
2022/10/25 09:47:18;;;;;;;9.40;8.63;;;16.40;39.50;;;;;;5051344;28;20419;-57
2022/10/25 09:49:48;;;;;;;9.87;9.20;;;16.50;39.90;;;;;;5051663;28;20433;-58
2022/10/25 09:52:38;;;;;;;10.17;9.47;;;16.50;40.30;;;;;;5051255;28;20471;-61
2022/10/25 09:55:32;;;;;;;9.63;9.33;;;16.60;40.00;;;;;;5051641;28;20415;-62
2022/10/25 09:57:58;;;;;;;9.80;9.27;;;16.60;40.00;;;;;;5050853;28;20504;-57
2022/10/25 10:00:24;;;;;;;8.80;8.50;;;16.70;38.80;;;;;;5049294;28;20415;-56
2022/10/25 10:02:50;;;;;;;9.40;9.00;;;16.60;38.80;;;;;;5050832;28;20405;-57
2022/10/25 10:05:18;;;;;;;9.13;8.47;;;16.70;39.10;;;;;;5051311;28;20527;-55
2022/10/25 10:07:45;;;;;;;10.20;9.77;;;16.70;39.40;;;;;;5050421;28;20493;-55
2022/10/25 10:10:33;;;;;;;9.30;8.90;;;16.70;39.40;;;;;;5050333;28;20407;-57
2022/10/25 10:13:03;;;;;;;10.20;9.90;;;16.80;39.50;;;;;;5051320;28;20442;-54
2022/10/25 10:15:42;;;;;;;10.50;10.10;;;16.90;38.40;;;;;;5051265;28;21006;-56
2022/10/25 10:18:22;;;;;;;11.33;10.53;;;16.90;38.00;;;;;;5052010;28;20453;-55
2022/10/25 10:21:05;;;;;;;10.53;10.20;;;16.90;38.10;;;;;;5051066;28;20410;-56
2022/10/25 10:23:40;;;;;;;10.87;9.83;;;16.90;38.00;;;;;;5051716;28;20493;-56
2022/10/25 10:26:34;;;;;;;10.43;10.13;;;17.00;37.80;;;;;;5050937;28;20424;-56
2022/10/25 10:29:04;;;;;;;9.63;9.33;;;17.10;37.70;;;;;;5067687;28;20423;-56
2022/10/25 10:31:46;;;;;;;10.80;10.20;;;17.00;37.70;;;;;;5050733;28;20985;-57
2022/10/25 10:34:31;;;;;;;9.57;9.17;;;17.10;37.70;;;;;;5051387;28;20448;-56
2022/10/25 10:37:01;;;;;;;10.53;10.13;;;17.10;37.70;;;;;;5050888;28;20458;-56
2022/10/25 10:39:26;;;;;;;11.17;10.67;;;17.10;37.70;;;;;;5052255;28;20418;-56
2022/10/25 10:41:59;;;;;;;9.90;9.50;;;17.20;37.80;;;;;;5050098;28;20497;-55
2022/10/25 10:44:25;;;;;;;10.20;9.70;;;17.30;38.00;;;;;;5050332;28;20211;-56
2022/10/25 10:46:53;;;;;;;9.80;9.40;;;17.30;37.90;;;;;;5050927;28;20506;-56
2022/10/25 10:49:23;;;;;;;11.20;10.40;;;17.30;37.50;;;;;;5049622;28;20820;-55
2022/10/25 10:51:49;;;;;;;10.50;9.70;;;17.40;37.90;;;;;;5050122;28;20435;-51
2022/10/25 10:54:28;;;;;;;9.00;8.70;;;17.40;37.20;;;;;;5051132;28;20414;-54
2022/10/25 10:57:05;;;;;;;9.57;9.27;;;17.40;37.00;;;;;;5049026;28;20276;-55
2022/10/25 10:59:44;;;;;;;11.00;10.33;;;17.50;36.80;;;;;;5049835;28;20446;-52
2022/10/25 11:02:22;;;;;;;10.10;9.60;;;17.60;36.50;;;;;;5049757;28;20505;-55
2022/10/25 11:04:53;;;;;;;10.20;9.60;;;17.60;35.50;;;;;;5049501;28;20418;-55
2022/10/25 11:07:32;;;;;;;9.63;9.23;;;17.60;35.70;;;;;;5050592;28;20426;-54
2022/10/25 11:10:16;;;;;;;9.67;9.37;;;17.70;36.50;;;;;;5049385;28;20877;-54
2022/10/25 11:12:45;;;;;;;10.87;10.40;;;17.70;35.70;;;;;;5048112;28;20910;-53
2022/10/25 11:15:14;;;;;;;10.33;9.43;;;17.80;35.50;;;;;;5048536;28;20877;-53
2022/10/25 11:17:53;;;;;;;8.90;8.37;;;17.80;35.00;;;;;;5048930;28;20450;-53
2022/10/25 11:21:11;;;;;;;9.57;9.17;;;17.80;34.30;;;;;;5047898;28;20433;-55
2022/10/25 11:23:43;;;;;;;9.80;9.10;;;17.90;34.50;;;;;;5028559;28;20506;-55
2022/10/25 11:26:28;;;;;;;8.87;8.47;;;17.90;34.70;;;;;;5028456;28;20419;-53
2022/10/25 11:29:12;;;;;;;9.73;9.23;;;17.90;34.40;;;;;;5027054;28;20514;-53
2022/10/25 11:32:02;;;;;;;9.67;9.27;;;17.90;33.80;;;;;;5028189;28;20438;-56
2022/10/25 11:34:59;;;;;;;8.90;8.60;;;17.90;33.70;;;;;;5028374;28;20447;-55
2022/10/25 11:38:01;;;;;;;8.80;8.20;;;18.00;33.10;;;;;;5031512;28;20901;-55
2022/10/25 11:40:38;;;;;;;9.90;9.50;;;18.10;32.70;;;;;;5047916;28;20455;-54
2022/10/25 11:43:04;;;;;;;10.10;9.63;;;18.00;32.60;;;;;;5048507;28;20453;-54
2022/10/25 11:45:29;;;;;;;11.10;10.53;;;18.10;32.80;;;;;;5047334;28;20422;-53
2022/10/25 11:48:17;;;;;;;9.97;9.63;;;18.10;31.20;;;;;;5048109;28;20680;-55
2022/10/25 11:51:05;;;;;;;9.80;9.30;;;18.10;31.40;;;;;;5048901;28;20546;-56
2022/10/25 11:53:54;;;;;;;10.70;9.97;;;18.10;32.20;;;;;;5046152;28;20763;-54
2022/10/25 11:56:31;;;;;;;10.43;9.90;;;18.10;30.80;;;;;;5040098;28;21040;-55
2022/10/25 11:59:19;;;;;;;9.93;9.47;;;18.20;31.90;;;;;;5047783;28;20849;-55
2022/10/25 12:02:16;;;;;;;10.20;9.90;;;18.30;31.90;;;;;;5048331;28;20505;-56
2022/10/25 12:05:02;;;;;;;9.80;9.40;;;18.40;30.90;;;;;;5045506;28;20882;-55
2022/10/25 12:07:43;;;;;;;9.53;9.23;;;18.50;29.00;;;;;;5046620;28;20422;-56
2022/10/25 12:10:24;;;;;;;10.00;9.60;;;18.50;29.00;;;;;;5045541;28;20838;-54
2022/10/25 12:13:16;;;;;;;12.07;10.67;;;18.60;29.00;;;;;;5047043;28;20410;-55
2022/10/25 12:15:48;;;;;;;11.33;10.50;;;18.60;29.50;;;;;;5045786;28;20465;-55
2022/10/25 12:18:30;;;;;;;9.50;9.20;;;18.60;29.70;;;;;;5047566;28;20828;-56
2022/10/25 12:20:57;;;;;;;9.23;8.93;;;18.60;29.90;;;;;;5047489;28;20425;-54
2022/10/25 12:23:25;;;;;;;9.70;9.37;;;18.60;29.30;;;;;;5047120;28;20460;-55
2022/10/25 12:26:05;;;;;;;10.93;10.40;;;18.70;29.10;;;;;;5051997;28;20471;-55
2022/10/25 12:28:40;;;;;;;10.50;9.90;;;18.70;29.10;;;;;;5050842;28;20410;-55
2022/10/25 12:31:22;;;;;;;9.83;9.43;;;18.70;29.80;;;;;;5050007;28;20806;-54
2022/10/25 12:34:00;;;;;;;10.73;9.83;;;18.80;31.60;;;;;;5052716;28;20549;-57
2022/10/25 12:36:36;;;;;;;10.57;9.87;;;18.80;32.10;;;;;;5052512;28;21042;-56
2022/10/25 12:39:09;;;;;;;9.97;9.40;;;18.70;33.20;;;;;;5052313;28;20418;-53
2022/10/25 12:41:39;;;;;;;10.50;9.80;;;18.60;33.00;;;;;;5051465;28;20493;-53
2022/10/25 12:44:16;;;;;;;9.27;8.97;;;18.50;33.00;;;;;;5052880;28;20411;-53
2022/10/25 12:46:57;;;;;;;10.00;9.47;;;18.50;33.80;;;;;;5051404;28;20502;-56
2022/10/25 12:49:36;;;;;;;9.90;9.50;;;18.50;33.50;;;;;;5052843;28;20414;-53
2022/10/25 12:52:27;;;;;;;9.50;9.03;;;18.50;33.70;;;;;;5051047;28;20414;-55
2022/10/25 12:55:27;;;;;;;9.63;9.33;;;18.40;32.20;;;;;;5051872;28;20423;-54
2022/10/25 12:58:23;;;;;;;9.50;8.90;;;18.40;32.60;;;;;;5051909;28;20431;-53
2022/10/25 13:01:19;;;;;;;9.70;8.90;;;18.40;32.80;;;;;;5051515;28;20419;-56